ROOKIE9 EFKU-EFJY

Flight info

Callsign ROOKIE9
Flight time 0h 34m
Altitude 16000
Route NISPO RERGA
Aircraft PC12/L-SDFGRY/H

Departure

Time 2026-05-07 20:29
Airport Kuopio Airport (EFKU)

Arrival

Time 2026-05-07 21:03
Airport Jyväskylä Airport (EFJY)
Time Latitude Longitude Altitude Speed Heading
2026-05-07 20:23 63.00407 27.79027 316 ft 0 kts 246°
2026-05-07 20:28 63.00427 27.79005 317 ft 9 kts 28°
2026-05-07 20:28 63.00519 27.79143 316 ft 15 kts 35°
2026-05-07 20:28 63.00639 27.79348 318 ft 28 kts 54°
2026-05-07 20:28 63.00709 27.79709 317 ft 28 kts 50°
2026-05-07 20:29 63.00768 27.79725 320 ft 9 kts 336°
2026-05-07 20:29 63.01051 27.79464 329 ft 78 kts 337°
2026-05-07 20:29 63.01648 27.78876 582 ft 104 kts 329°
2026-05-07 20:29 63.02351 27.77989 1115 ft 123 kts 332°
2026-05-07 20:30 63.03116 27.77347 2042 ft 116 kts 337°
2026-05-07 20:30 63.03925 27.76722 2695 ft 130 kts 336°
2026-05-07 20:30 63.04800 27.75989 3429 ft 135 kts 334°
2026-05-07 20:30 63.05674 27.75210 4259 ft 136 kts 333°
2026-05-07 20:31 63.06561 27.74401 5079 ft 139 kts 332°
2026-05-07 20:31 63.07459 27.73577 5901 ft 141 kts 332°
2026-05-07 20:31 63.08369 27.72739 6708 ft 143 kts 331°
2026-05-07 20:31 63.09293 27.71886 7488 ft 145 kts 331°
2026-05-07 20:32 63.10217 27.71034 8262 ft 147 kts 330°
2026-05-07 20:32 63.11043 27.69843 9028 ft 140 kts 294°
2026-05-07 20:32 63.11164 27.67795 9851 ft 136 kts 263°
2026-05-07 20:32 63.10798 27.65886 10631 ft 139 kts 233°
2026-05-07 20:33 63.10094 27.64392 11407 ft 141 kts 226°
2026-05-07 20:33 63.09394 27.62862 12216 ft 142 kts 228°
2026-05-07 20:33 63.08703 27.61285 13025 ft 144 kts 228°
2026-05-07 20:33 63.08008 27.59677 13844 ft 146 kts 228°
2026-05-07 20:34 63.07306 27.58048 14576 ft 147 kts 229°
2026-05-07 20:34 63.06598 27.56404 15317 ft 149 kts 229°
2026-05-07 20:34 63.05781 27.54889 15927 ft 163 kts 214°
2026-05-07 20:34 63.05048 27.54154 16109 ft 180 kts 205°
2026-05-07 20:35 63.03873 27.53170 16110 ft 178 kts 205°
2026-05-07 20:35 63.02770 27.52236 16090 ft 164 kts 206°
2026-05-07 20:35 63.01731 27.51345 16090 ft 158 kts 206°
2026-05-07 20:35 63.00715 27.50474 16097 ft 156 kts 206°
2026-05-07 20:36 62.99699 27.49602 16096 ft 157 kts 206°
2026-05-07 20:36 62.98675 27.48727 16092 ft 158 kts 206°
2026-05-07 20:36 62.97647 27.47848 16094 ft 158 kts 206°
2026-05-07 20:36 62.96622 27.46973 16094 ft 158 kts 206°
2026-05-07 20:37 62.95594 27.46095 16092 ft 158 kts 206°
2026-05-07 20:37 62.94565 27.45219 16092 ft 158 kts 206°
2026-05-07 20:37 62.93538 27.44345 16098 ft 158 kts 207°
2026-05-07 20:37 62.92504 27.43463 16098 ft 160 kts 207°
2026-05-07 20:38 62.91473 27.42585 16101 ft 161 kts 207°
2026-05-07 20:38 62.90425 27.41695 16104 ft 162 kts 207°
2026-05-07 20:38 62.89375 27.40804 16108 ft 162 kts 207°
2026-05-07 20:38 62.88326 27.39914 16108 ft 162 kts 207°
2026-05-07 20:39 62.87275 27.39023 16107 ft 162 kts 207°
2026-05-07 20:39 62.86221 27.38129 16106 ft 162 kts 207°
2026-05-07 20:39 62.85167 27.37236 16107 ft 162 kts 207°
2026-05-07 20:39 62.84111 27.36345 16108 ft 163 kts 207°
2026-05-07 20:40 62.83058 27.35453 16106 ft 163 kts 207°
2026-05-07 20:40 62.82001 27.34562 16109 ft 163 kts 207°
2026-05-07 20:40 62.80943 27.33669 16110 ft 163 kts 207°
2026-05-07 20:40 62.79888 27.32774 16109 ft 162 kts 208°
2026-05-07 20:41 62.78953 27.31492 16106 ft 157 kts 226°
2026-05-07 20:41 62.78228 27.29731 16107 ft 156 kts 233°
2026-05-07 20:41 62.77529 27.27921 16109 ft 156 kts 233°
2026-05-07 20:41 62.76826 27.26114 16110 ft 156 kts 233°
2026-05-07 20:42 62.76126 27.24308 16111 ft 156 kts 233°
2026-05-07 20:42 62.75425 27.22499 16111 ft 156 kts 233°
2026-05-07 20:42 62.74724 27.20692 16111 ft 156 kts 233°
2026-05-07 20:42 62.74032 27.18908 16112 ft 156 kts 233°
2026-05-07 20:43 62.73329 27.17099 16112 ft 156 kts 233°
2026-05-07 20:43 62.72628 27.15294 16114 ft 156 kts 233°
2026-05-07 20:43 62.71925 27.13488 16114 ft 156 kts 233°
2026-05-07 20:43 62.71222 27.11681 16114 ft 156 kts 233°
2026-05-07 20:44 62.70517 27.09878 16115 ft 156 kts 233°
2026-05-07 20:44 62.69813 27.08076 16115 ft 156 kts 233°
2026-05-07 20:44 62.69108 27.06275 16114 ft 156 kts 233°
2026-05-07 20:44 62.68403 27.04476 16092 ft 156 kts 233°
2026-05-07 20:45 62.67697 27.02677 16099 ft 156 kts 234°
2026-05-07 20:45 62.66993 27.00878 16099 ft 156 kts 234°
2026-05-07 20:45 62.66287 26.99079 16105 ft 156 kts 234°
2026-05-07 20:45 62.65585 26.97291 15999 ft 159 kts 234°
2026-05-07 20:46 62.64696 26.95934 15744 ft 165 kts 201°
2026-05-07 20:46 62.63605 26.95274 15503 ft 158 kts 220°
2026-05-07 20:46 62.63056 26.93358 15266 ft 149 kts 252°
2026-05-07 20:46 62.62577 26.91360 15059 ft 150 kts 239°
2026-05-07 20:47 62.61961 26.89523 14855 ft 150 kts 237°
2026-05-07 20:47 62.61326 26.87715 14661 ft 150 kts 236°
2026-05-07 20:47 62.60688 26.85913 14463 ft 150 kts 236°
2026-05-07 20:47 62.60051 26.84114 14280 ft 150 kts 236°
2026-05-07 20:48 62.59413 26.82320 14083 ft 150 kts 236°
2026-05-07 20:48 62.58776 26.80527 13887 ft 150 kts 236°
2026-05-07 20:48 62.58140 26.78739 13669 ft 149 kts 236°
2026-05-07 20:48 62.57506 26.76958 13452 ft 149 kts 236°
2026-05-07 20:49 62.56872 26.75180 13231 ft 149 kts 236°
2026-05-07 20:49 62.56237 26.73400 12927 ft 148 kts 236°
2026-05-07 20:49 62.55619 26.71666 12587 ft 147 kts 236°
2026-05-07 20:49 62.54994 26.69918 12253 ft 146 kts 236°
2026-05-07 20:50 62.54370 26.68173 11962 ft 148 kts 237°
2026-05-07 20:50 62.53717 26.66353 11772 ft 159 kts 237°
2026-05-07 20:50 62.53005 26.64346 11551 ft 178 kts 237°
2026-05-07 20:50 62.52208 26.62116 11311 ft 197 kts 236°
2026-05-07 20:51 62.51332 26.59676 11045 ft 212 kts 236°
2026-05-07 20:51 62.50413 26.57129 10750 ft 216 kts 236°
2026-05-07 20:51 62.49488 26.54560 10455 ft 217 kts 236°
2026-05-07 20:51 62.48562 26.51991 10158 ft 216 kts 236°
2026-05-07 20:52 62.47642 26.49435 9859 ft 215 kts 236°
2026-05-07 20:52 62.46726 26.46897 9565 ft 213 kts 236°
2026-05-07 20:52 62.45818 26.44380 9267 ft 212 kts 236°
2026-05-07 20:52 62.44913 26.41881 8982 ft 211 kts 236°
2026-05-07 20:53 62.44014 26.39398 8727 ft 209 kts 235°
2026-05-07 20:53 62.43119 26.36927 8454 ft 208 kts 235°
2026-05-07 20:53 62.42229 26.34473 8180 ft 207 kts 235°
2026-05-07 20:53 62.41343 26.32032 7908 ft 206 kts 235°
2026-05-07 20:54 62.40463 26.29611 7640 ft 205 kts 235°
2026-05-07 20:54 62.39585 26.27200 7370 ft 204 kts 235°
2026-05-07 20:54 62.38713 26.24806 7103 ft 202 kts 234°
2026-05-07 20:54 62.37844 26.22423 6836 ft 201 kts 234°
2026-05-07 20:55 62.36981 26.20060 6571 ft 200 kts 234°
2026-05-07 20:55 62.36122 26.17708 6300 ft 199 kts 234°
2026-05-07 20:55 62.35263 26.15364 6035 ft 200 kts 234°
2026-05-07 20:55 62.34401 26.13007 5771 ft 201 kts 234°
2026-05-07 20:56 62.33539 26.10655 5509 ft 200 kts 234°
2026-05-07 20:56 62.32639 26.08367 5242 ft 201 kts 228°
2026-05-07 20:56 62.31655 26.06341 4983 ft 190 kts 227°
2026-05-07 20:56 62.30749 26.04452 4740 ft 173 kts 228°
2026-05-07 20:57 62.29911 26.02690 4493 ft 165 kts 229°
2026-05-07 20:57 62.29095 26.00978 4244 ft 162 kts 229°
2026-05-07 20:57 62.28421 25.99085 3967 ft 159 kts 248°
2026-05-07 20:57 62.28160 25.96887 3689 ft 148 kts 269°
2026-05-07 20:58 62.28326 25.94768 3491 ft 143 kts 296°
2026-05-07 20:58 62.28783 25.92893 3300 ft 141 kts 307°
2026-05-07 20:58 62.29433 25.91312 3115 ft 141 kts 311°
2026-05-07 20:58 62.30096 25.89763 2932 ft 140 kts 313°
2026-05-07 20:59 62.30762 25.88273 2899 ft 139 kts 314°
2026-05-07 20:59 62.31448 25.86740 2729 ft 141 kts 314°
2026-05-07 20:59 62.32120 25.85245 2534 ft 138 kts 314°
2026-05-07 20:59 62.32782 25.83770 2339 ft 136 kts 314°
2026-05-07 21:00 62.33435 25.82313 2150 ft 135 kts 314°
2026-05-07 21:00 62.34083 25.80868 1960 ft 133 kts 314°
2026-05-07 21:00 62.34720 25.79450 1775 ft 133 kts 315°
2026-05-07 21:00 62.35371 25.78007 1588 ft 138 kts 314°
2026-05-07 21:01 62.36042 25.76508 1398 ft 134 kts 315°
2026-05-07 21:01 62.36639 25.75187 1198 ft 115 kts 314°
2026-05-07 21:01 62.37162 25.74016 1040 ft 101 kts 314°
2026-05-07 21:01 62.37615 25.73012 905 ft 87 kts 313°
2026-05-07 21:02 62.38022 25.72102 792 ft 83 kts 312°
2026-05-07 21:02 62.38424 25.71229 688 ft 81 kts 316°
2026-05-07 21:02 62.38817 25.70343 565 ft 81 kts 315°
2026-05-07 21:02 62.39211 25.69468 474 ft 83 kts 314°
2026-05-07 21:03 62.39600 25.68598 457 ft 73 kts 313°
2026-05-07 21:03 62.39905 25.67920 461 ft 58 kts 313°
2026-05-07 21:03 62.40179 25.67305 469 ft 57 kts 313°
2026-05-07 21:03 62.40410 25.66788 474 ft 25 kts 314°
2026-05-07 21:04 62.40527 25.66476 478 ft 22 kts 267°
2026-05-07 21:04 62.40443 25.66260 478 ft 23 kts 224°
2026-05-07 21:04 62.40335 25.66033 480 ft 29 kts 224°
2026-05-07 21:04 62.40209 25.65771 475 ft 20 kts 223°
2026-05-07 21:05 62.40159 25.65707 477 ft 8 kts 33°
2026-05-07 21:05 62.40167 25.65725 474 ft 0 kts 47°